createdAt,value
2023-02-09T00:02:27.775Z,-3.03
2023-02-09T00:05:29.362Z,-3.08
2023-02-09T00:08:31.609Z,-3.12
2023-02-09T00:11:51.953Z,-3.14
2023-02-09T00:14:53.489Z,-3.16
2023-02-09T00:17:55.050Z,-3.15
2023-02-09T00:21:08.082Z,-3.15
2023-02-09T00:24:10.827Z,-3.15
2023-02-09T00:27:12.473Z,-3.14
2023-02-09T00:30:14.240Z,-3.14
2023-02-09T00:33:15.746Z,-3.14
2023-02-09T00:36:17.362Z,-3.15
2023-02-09T00:39:18.953Z,-3.13
2023-02-09T00:42:20.522Z,-3.13
2023-02-09T00:45:22.118Z,-3.14
2023-02-09T00:48:23.764Z,-3.15
2023-02-09T00:51:25.326Z,-3.16
2023-02-09T00:54:27.253Z,-3.15
2023-02-09T00:57:28.921Z,-3.18
2023-02-09T01:00:30.630Z,-3.20
2023-02-09T01:03:32.234Z,-3.20
2023-02-09T01:06:34.353Z,-3.20
2023-02-09T01:09:35.895Z,-3.21
2023-02-09T01:12:40.723Z,-3.21
2023-02-09T01:15:42.342Z,-3.21
2023-02-09T01:18:44.673Z,-3.22
2023-02-09T01:21:48.312Z,-3.25
2023-02-09T01:24:50.148Z,-3.26
2023-02-09T01:27:51.792Z,-3.28
2023-02-09T01:30:53.505Z,-3.29
2023-02-09T01:33:56.944Z,-3.31
2023-02-09T01:36:58.618Z,-3.32
2023-02-09T01:40:00.200Z,-3.34
2023-02-09T01:43:01.783Z,-3.35
2023-02-09T01:46:03.398Z,-3.37
2023-02-09T01:49:08.058Z,-3.38
2023-02-09T01:52:14.889Z,-3.40
2023-02-09T01:55:20.611Z,-3.42
2023-02-09T01:58:24.925Z,-3.43
2023-02-09T02:01:27.013Z,-3.47
2023-02-09T02:04:28.963Z,-3.49
2023-02-09T02:08:00.918Z,-3.52
2023-02-09T02:11:03.914Z,-3.55
2023-02-09T02:14:05.697Z,-3.58
2023-02-09T02:17:13.073Z,-3.60
2023-02-09T02:20:33.157Z,-3.60
2023-02-09T02:24:06.126Z,-3.62
2023-02-09T02:27:17.400Z,-3.63
2023-02-09T02:30:28.120Z,-3.63
2023-02-09T02:33:46.005Z,-3.64
2023-02-09T02:36:53.415Z,-3.67
2023-02-09T02:39:57.889Z,-3.69
2023-02-09T02:43:02.392Z,-3.68
2023-02-09T02:46:16.705Z,-3.70
2023-02-09T02:49:44.542Z,-3.72
2023-02-09T02:52:48.221Z,-3.72
2023-02-09T02:55:50.240Z,-3.73
2023-02-09T02:58:56.211Z,-3.74
2023-02-09T03:02:04.726Z,-3.78
2023-02-09T03:05:08.258Z,-3.83
2023-02-09T03:08:09.867Z,-3.85
2023-02-09T03:11:11.779Z,-3.89
2023-02-09T03:14:19.380Z,-3.89
2023-02-09T03:17:28.848Z,-3.90
2023-02-09T03:20:50.999Z,-3.91
2023-02-09T03:24:24.433Z,-3.90
2023-02-09T03:27:32.046Z,-3.88
2023-02-09T03:30:35.632Z,-3.85
2023-02-09T03:33:39.474Z,-3.82
2023-02-09T03:36:41.245Z,-3.81
2023-02-09T03:39:42.824Z,-3.79
2023-02-09T03:42:44.342Z,-3.79
2023-02-09T03:45:45.938Z,-3.80
2023-02-09T03:48:47.953Z,-3.81
2023-02-09T03:51:49.509Z,-3.83
2023-02-09T03:54:51.064Z,-3.85
2023-02-09T03:57:52.804Z,-3.85
2023-02-09T04:00:54.395Z,-3.85
2023-02-09T04:03:55.994Z,-3.82
2023-02-09T04:06:58.072Z,-3.79
2023-02-09T04:09:59.652Z,-3.77
2023-02-09T04:13:01.177Z,-3.73
2023-02-09T04:16:02.834Z,-3.71
2023-02-09T04:19:05.162Z,-3.66
2023-02-09T04:22:08.262Z,-3.63
2023-02-09T04:25:09.872Z,-3.60
2023-02-09T04:28:11.561Z,-3.57
2023-02-09T04:31:13.479Z,-3.53
2023-02-09T04:34:15.093Z,-3.49
2023-02-09T04:37:16.623Z,-3.46
2023-02-09T04:40:18.236Z,-3.45
2023-02-09T04:43:20.278Z,-3.42
2023-02-09T04:46:21.842Z,-3.39
2023-02-09T04:49:23.404Z,-3.38
2023-02-09T04:52:24.923Z,-3.36
2023-02-09T04:55:26.756Z,-3.34
2023-02-09T04:58:46.918Z,-3.33
2023-02-09T05:01:48.524Z,-3.32
2023-02-09T05:04:50.035Z,-3.30
2023-02-09T05:07:51.579Z,-3.28
2023-02-09T05:10:54.014Z,-3.27
2023-02-09T05:13:55.902Z,-3.25
2023-02-09T05:16:57.504Z,-3.22
2023-02-09T05:19:59.562Z,-3.21
2023-02-09T05:23:01.127Z,-3.20
2023-02-09T05:26:02.830Z,-3.20
2023-02-09T05:29:04.590Z,-3.18
2023-02-09T05:32:06.217Z,-3.19
2023-02-09T05:35:08.551Z,-3.17
2023-02-09T05:38:10.120Z,-3.15
2023-02-09T05:41:36.648Z,-3.15
2023-02-09T05:44:38.235Z,-3.15
2023-02-09T05:47:39.954Z,-3.14
2023-02-09T05:50:41.644Z,-3.10
2023-02-09T05:53:43.199Z,-3.04
2023-02-09T05:56:44.799Z,-3.06
2023-02-09T05:59:46.385Z,-3.04
2023-02-09T06:02:47.932Z,-3.02
2023-02-09T06:05:49.514Z,-2.66
2023-02-09T06:08:51.073Z,-2.34
2023-02-09T06:11:52.667Z,-2.31
2023-02-09T06:14:54.221Z,-2.32
2023-02-09T06:17:55.768Z,-2.37
2023-02-09T06:20:58.477Z,-2.42
2023-02-09T06:23:59.986Z,-2.47
2023-02-09T06:27:01.598Z,-2.53
2023-02-09T06:30:03.604Z,-2.56
2023-02-09T06:33:05.178Z,-2.61
2023-02-09T06:36:08.112Z,-2.63
2023-02-09T06:39:10.524Z,-2.65
2023-02-09T06:42:12.079Z,-2.67
2023-02-09T06:45:15.459Z,-2.69
2023-02-09T06:48:17.112Z,-2.71
2023-02-09T06:51:18.762Z,-2.74
2023-02-09T06:54:20.760Z,-2.73
2023-02-09T06:57:22.280Z,-2.72
2023-02-09T07:00:24.263Z,-2.73
2023-02-09T07:03:25.903Z,-2.73
2023-02-09T07:06:27.465Z,-2.72
2023-02-09T07:09:29.010Z,-2.71
2023-02-09T07:12:30.689Z,-2.68
2023-02-09T07:15:32.242Z,-2.66
2023-02-09T07:18:34.236Z,-2.67
2023-02-09T07:21:35.792Z,-2.66
2023-02-09T07:24:37.370Z,-2.63
2023-02-09T07:27:43.189Z,-2.56
2023-02-09T07:30:46.471Z,-2.38
2023-02-09T07:33:48.426Z,-2.34
2023-02-09T07:36:50.059Z,-2.35
2023-02-09T07:39:51.786Z,-2.35
2023-02-09T07:42:53.353Z,-2.35
2023-02-09T07:46:00.634Z,-2.35
2023-02-09T07:49:02.248Z,-2.36
2023-02-09T07:52:04.125Z,-2.34
2023-02-09T07:55:06.328Z,-2.32
2023-02-09T07:58:07.863Z,-2.29
2023-02-09T08:01:12.135Z,-2.26
2023-02-09T08:04:13.740Z,-2.25
2023-02-09T08:07:15.649Z,-2.22
2023-02-09T08:10:18.862Z,-2.17
2023-02-09T08:13:20.696Z,-2.12
2023-02-09T08:16:26.436Z,-2.08
2023-02-09T08:19:28.691Z,-2.03
2023-02-09T08:22:34.966Z,-1.99
2023-02-09T08:25:37.407Z,-1.94
2023-02-09T08:28:44.927Z,-1.89
2023-02-09T08:31:46.990Z,-1.85
2023-02-09T08:34:48.604Z,-1.80
2023-02-09T08:37:50.236Z,-1.75
2023-02-09T08:40:51.811Z,-1.70
2023-02-09T08:43:53.406Z,-1.64
2023-02-09T08:46:55.120Z,-1.08
2023-02-09T08:49:56.927Z,-0.81
2023-02-09T08:52:59.946Z,-0.75
2023-02-09T08:56:01.624Z,-0.74
2023-02-09T08:59:03.478Z,-0.56
2023-02-09T09:02:05.080Z,-0.49
2023-02-09T09:05:07.076Z,-0.50
2023-02-09T09:08:10.929Z,-0.53
2023-02-09T09:11:14.707Z,-0.55
2023-02-09T09:14:16.353Z,-0.58
2023-02-09T09:17:17.890Z,-0.60
2023-02-09T09:20:19.603Z,-0.59
2023-02-09T09:23:21.305Z,-0.59
2023-02-09T09:26:22.936Z,-0.56
2023-02-09T09:29:25.085Z,-0.54
2023-02-09T09:32:27.294Z,-0.53
2023-02-09T09:35:31.281Z,-0.49
2023-02-09T09:38:35.339Z,-0.46
2023-02-09T09:41:38.088Z,-0.39
2023-02-09T09:44:47.107Z,-0.31
2023-02-09T09:47:49.442Z,-0.24
2023-02-09T09:50:55.899Z,-0.18
2023-02-09T09:53:59.459Z,-0.12
2023-02-09T09:57:02.073Z,-0.05
2023-02-09T10:00:05.003Z,0.04
2023-02-09T10:03:18.684Z,0.09
2023-02-09T10:06:22.732Z,0.18
2023-02-09T10:09:28.221Z,0.22
2023-02-09T10:12:36.831Z,0.27
2023-02-09T10:15:38.571Z,0.30
2023-02-09T10:18:40.906Z,0.36
2023-02-09T10:21:42.450Z,0.39
2023-02-09T10:24:44.005Z,0.45
2023-02-09T10:27:47.015Z,0.52
2023-02-09T10:30:51.733Z,0.58
2023-02-09T10:33:58.976Z,0.64
2023-02-09T10:37:18.980Z,0.68
2023-02-09T10:40:32.754Z,0.75
2023-02-09T10:43:35.241Z,0.80
2023-02-09T10:46:38.078Z,0.84
2023-02-09T10:49:42.369Z,0.87
2023-02-09T10:53:18.636Z,1.00
2023-02-09T10:56:23.354Z,1.04
2023-02-09T10:59:25.836Z,1.08
2023-02-09T11:02:38.279Z,1.15
2023-02-09T11:05:39.875Z,1.19
2023-02-09T11:08:49.739Z,1.25
2023-02-09T11:11:57.052Z,1.27
2023-02-09T11:14:58.660Z,1.30
2023-02-09T11:18:15.861Z,1.33
2023-02-09T11:21:40.739Z,1.36
2023-02-09T11:25:28.784Z,1.44
2023-02-09T11:28:30.333Z,1.50
2023-02-09T11:31:46.824Z,1.53
2023-02-09T11:35:00.995Z,1.55
2023-02-09T11:38:10.903Z,1.56
2023-02-09T11:41:37.412Z,1.60
2023-02-09T11:44:51.760Z,1.68
2023-02-09T11:48:11.927Z,1.75
2023-02-09T11:51:23.566Z,2.14
2023-02-09T11:54:32.911Z,2.52
2023-02-09T11:57:46.394Z,2.56
2023-02-09T12:01:10.146Z,2.47
2023-02-09T12:04:31.083Z,2.37
2023-02-09T12:07:43.809Z,2.27
2023-02-09T12:11:12.532Z,2.37
2023-02-09T12:14:35.208Z,2.30
2023-02-09T12:17:56.659Z,2.24
2023-02-09T12:21:01.214Z,2.15
2023-02-09T12:24:26.304Z,2.07
2023-02-09T12:27:28.111Z,2.03
2023-02-09T12:30:45.173Z,1.99
2023-02-09T12:33:47.065Z,1.97
2023-02-09T12:37:13.504Z,1.92
2023-02-09T12:40:21.108Z,1.85
2023-02-09T12:43:28.151Z,1.83
2023-02-09T12:46:29.753Z,1.82
2023-02-09T12:49:33.894Z,1.85
2023-02-09T12:52:35.487Z,1.82
2023-02-09T12:55:38.160Z,1.81
2023-02-09T12:58:54.692Z,1.82
2023-02-09T13:02:08.162Z,1.84
2023-02-09T13:05:21.059Z,1.86
2023-02-09T13:08:34.418Z,1.91
2023-02-09T13:11:51.540Z,1.95
2023-02-09T13:14:53.054Z,1.95
2023-02-09T13:18:00.686Z,1.98
2023-02-09T13:21:26.931Z,2.00
2023-02-09T13:24:37.876Z,2.03
2023-02-09T13:27:50.148Z,2.01
2023-02-09T13:30:52.241Z,2.00
2023-02-09T13:34:00.010Z,2.00
2023-02-09T13:37:04.547Z,2.01
2023-02-09T13:40:21.812Z,2.01
2023-02-09T13:43:30.943Z,2.00
2023-02-09T13:46:35.258Z,2.01
2023-02-09T13:49:36.954Z,2.02
2023-02-09T13:52:40.131Z,2.04
2023-02-09T13:55:42.944Z,2.02
2023-02-09T13:58:44.699Z,2.02
2023-02-09T14:01:46.563Z,2.01
2023-02-09T14:04:52.157Z,2.02
2023-02-09T14:07:53.886Z,2.01
2023-02-09T14:11:01.106Z,2.02
2023-02-09T14:14:25.662Z,2.07
2023-02-09T14:17:30.624Z,2.14
2023-02-09T14:20:32.328Z,2.13
2023-02-09T14:23:35.253Z,2.11
2023-02-09T14:26:44.992Z,2.07
2023-02-09T14:29:48.877Z,2.05
2023-02-09T14:32:56.806Z,2.05
2023-02-09T14:35:59.850Z,2.01
2023-02-09T14:39:16.645Z,1.99
2023-02-09T14:42:18.369Z,1.99
2023-02-09T14:45:30.451Z,2.09
2023-02-09T14:48:31.995Z,2.11
2023-02-09T14:51:33.550Z,2.07
2023-02-09T14:54:48.445Z,2.05
2023-02-09T14:57:50.025Z,2.03
2023-02-09T15:00:53.559Z,1.98
2023-02-09T15:03:55.122Z,1.95
2023-02-09T15:07:01.978Z,1.92
2023-02-09T15:10:29.198Z,1.89
2023-02-09T15:13:33.040Z,1.87
2023-02-09T15:16:34.626Z,1.84
2023-02-09T15:19:36.204Z,1.83
2023-02-09T15:22:37.783Z,1.81
2023-02-09T15:25:41.054Z,1.78
2023-02-09T15:28:43.103Z,1.75
2023-02-09T15:31:44.713Z,1.72
2023-02-09T15:34:46.355Z,1.70
2023-02-09T15:37:59.704Z,1.69
2023-02-09T15:41:19.688Z,1.66
2023-02-09T15:44:40.440Z,1.65
2023-02-09T15:47:53.408Z,1.84
2023-02-09T15:50:55.277Z,1.84
2023-02-09T15:54:00.530Z,1.83
2023-02-09T15:57:02.346Z,1.81
2023-02-09T16:00:15.077Z,1.82
2023-02-09T16:03:19.402Z,1.81
2023-02-09T16:06:24.892Z,1.81
2023-02-09T16:09:28.610Z,1.79
2023-02-09T16:12:30.533Z,1.79
2023-02-09T16:15:32.113Z,1.78
2023-02-09T16:18:33.648Z,1.75
2023-02-09T16:21:35.851Z,1.74
2023-02-09T16:24:43.772Z,1.75
2023-02-09T16:27:45.487Z,1.74
2023-02-09T16:30:55.300Z,1.74
2023-02-09T16:33:56.844Z,1.74
2023-02-09T16:36:58.598Z,1.74
2023-02-09T16:40:01.687Z,1.75
2023-02-09T16:43:03.343Z,1.73
2023-02-09T16:46:05.617Z,1.75
2023-02-09T16:49:24.005Z,1.74
2023-02-09T16:52:26.674Z,1.74
2023-02-09T16:55:29.795Z,1.72
2023-02-09T16:58:32.314Z,1.72
2023-02-09T17:01:34.482Z,1.70
2023-02-09T17:04:37.834Z,1.70
2023-02-09T17:07:52.536Z,1.70
2023-02-09T17:10:56.403Z,1.70
2023-02-09T17:13:57.959Z,1.72
2023-02-09T17:16:59.592Z,1.72
2023-02-09T17:20:01.133Z,1.72
2023-02-09T17:23:02.786Z,1.71
2023-02-09T17:26:04.584Z,1.68
2023-02-09T17:29:06.622Z,1.67
2023-02-09T17:32:13.269Z,1.67
2023-02-09T17:35:38.176Z,1.68
2023-02-09T17:38:42.557Z,1.67
2023-02-09T17:41:46.560Z,1.66
2023-02-09T17:44:48.403Z,1.66
2023-02-09T17:47:57.593Z,1.65
2023-02-09T17:51:00.575Z,1.65
2023-02-09T17:54:03.324Z,1.64
2023-02-09T17:57:05.635Z,1.63
2023-02-09T18:00:07.722Z,1.64
2023-02-09T18:03:16.714Z,1.64
2023-02-09T18:06:21.516Z,1.64
2023-02-09T18:09:23.117Z,1.64
2023-02-09T18:12:29.031Z,1.64
2023-02-09T18:15:35.398Z,1.65
2023-02-09T18:18:36.992Z,1.64
2023-02-09T18:21:44.940Z,1.62
2023-02-09T18:24:46.553Z,1.60
2023-02-09T18:27:48.672Z,1.63
2023-02-09T18:30:50.275Z,1.63
2023-02-09T18:33:51.897Z,1.64
2023-02-09T18:36:53.722Z,1.65
2023-02-09T18:39:55.275Z,1.66
2023-02-09T18:42:56.841Z,1.66
2023-02-09T18:45:58.525Z,1.66
2023-02-09T18:49:01.889Z,1.65
2023-02-09T18:52:06.053Z,1.66
2023-02-09T18:55:07.882Z,1.65
2023-02-09T18:58:09.597Z,1.65
2023-02-09T19:01:12.713Z,1.65
2023-02-09T19:04:14.348Z,1.65
2023-02-09T19:07:16.426Z,1.64
2023-02-09T19:10:20.302Z,1.63
2023-02-09T19:13:21.855Z,1.60
2023-02-09T19:16:23.515Z,1.58
2023-02-09T19:19:25.352Z,1.57
2023-02-09T19:22:27.065Z,1.54
2023-02-09T19:25:28.864Z,1.52
2023-02-09T19:28:31.145Z,1.52
2023-02-09T19:31:32.785Z,1.48
2023-02-09T19:34:37.119Z,1.45
2023-02-09T19:37:40.479Z,1.43
2023-02-09T19:40:43.254Z,1.41
2023-02-09T19:43:44.838Z,1.40
2023-02-09T19:46:46.420Z,1.38
2023-02-09T19:49:48.046Z,1.37
2023-02-09T19:52:50.382Z,1.39
2023-02-09T19:55:53.448Z,1.39
2023-02-09T19:58:55.164Z,1.36
2023-02-09T20:01:56.859Z,1.33
2023-02-09T20:04:58.490Z,1.32
2023-02-09T20:08:00.082Z,1.31
2023-02-09T20:11:05.213Z,1.31
2023-02-09T20:14:06.945Z,1.30
2023-02-09T20:17:08.806Z,1.31
2023-02-09T20:20:11.603Z,1.31
2023-02-09T20:23:15.507Z,1.29
2023-02-09T20:26:23.612Z,1.31
2023-02-09T20:29:25.210Z,1.31
2023-02-09T20:32:30.610Z,1.31
2023-02-09T20:35:32.110Z,1.33
2023-02-09T20:38:34.519Z,1.32
2023-02-09T20:41:36.066Z,1.32
2023-02-09T20:44:56.581Z,1.30
2023-02-09T20:47:58.194Z,1.30
2023-02-09T20:50:59.766Z,1.32
2023-02-09T20:54:01.334Z,1.34
2023-02-09T20:57:04.577Z,1.34
2023-02-09T21:00:10.285Z,1.34
2023-02-09T21:03:12.451Z,1.34
2023-02-09T21:06:14.350Z,1.34
2023-02-09T21:09:16.067Z,1.33
2023-02-09T21:12:17.647Z,1.32
2023-02-09T21:15:19.210Z,1.32
2023-02-09T21:18:21.974Z,1.32
2023-02-09T21:21:26.280Z,1.30
2023-02-09T21:24:28.088Z,1.29
2023-02-09T21:27:29.716Z,1.28
2023-02-09T21:30:31.359Z,1.27
2023-02-09T21:33:35.235Z,1.27
2023-02-09T21:36:38.105Z,1.29
2023-02-09T21:39:40.593Z,1.31
2023-02-09T21:42:42.889Z,1.30
2023-02-09T21:45:44.522Z,1.30
2023-02-09T21:48:46.387Z,1.30
2023-02-09T21:51:47.926Z,1.30
2023-02-09T21:54:49.867Z,1.30
2023-02-09T21:57:51.489Z,1.33
2023-02-09T22:00:57.599Z,1.34
2023-02-09T22:03:59.323Z,1.35
2023-02-09T22:07:00.883Z,1.37
2023-02-09T22:10:02.770Z,1.38
2023-02-09T22:13:08.539Z,1.38
2023-02-09T22:16:11.242Z,1.40
2023-02-09T22:19:12.879Z,1.43
2023-02-09T22:22:14.442Z,1.45
2023-02-09T22:25:16.093Z,1.47
2023-02-09T22:28:17.645Z,1.50
2023-02-09T22:31:21.554Z,1.51
2023-02-09T22:34:23.070Z,1.52
2023-02-09T22:37:24.672Z,1.55
2023-02-09T22:40:26.246Z,1.56
2023-02-09T22:43:27.885Z,1.57
2023-02-09T22:46:38.156Z,1.58
2023-02-09T22:49:39.761Z,1.59
2023-02-09T22:52:41.293Z,1.60
2023-02-09T22:55:42.883Z,1.62
2023-02-09T22:58:44.392Z,1.65
2023-02-09T23:01:46.194Z,1.66
2023-02-09T23:04:47.762Z,1.66
2023-02-09T23:07:49.357Z,1.68
2023-02-09T23:10:50.896Z,1.67
2023-02-09T23:14:03.798Z,1.68
2023-02-09T23:17:10.755Z,1.86
2023-02-09T23:20:12.289Z,1.88
2023-02-09T23:23:16.341Z,1.88
2023-02-09T23:26:19.450Z,1.85
2023-02-09T23:29:21.743Z,1.82
2023-02-09T23:32:23.277Z,1.82
2023-02-09T23:35:24.845Z,1.81
2023-02-09T23:38:26.429Z,1.78
2023-02-09T23:41:28.072Z,1.76
2023-02-09T23:44:29.629Z,1.75
2023-02-09T23:47:31.243Z,1.74
2023-02-09T23:50:32.838Z,1.73
2023-02-09T23:53:35.164Z,1.74
2023-02-09T23:56:37.389Z,1.74
2023-02-09T23:59:39.569Z,1.74
